sensor_id;sensor_type;location;lat;lon;timestamp;P1;durP1;ratioP1;P2;durP2;ratioP2
34242;SDS011;20504;43.214;27.920;2024-02-23T00:00:40;49.20;;;28.25;;
34242;SDS011;20504;43.214;27.920;2024-02-23T00:03:51;44.55;;;27.58;;
34242;SDS011;20504;43.214;27.920;2024-02-23T00:12:16;44.30;;;27.35;;
34242;SDS011;20504;43.214;27.920;2024-02-23T00:15:32;43.75;;;26.90;;
34242;SDS011;20504;43.214;27.920;2024-02-23T00:22:18;43.75;;;25.27;;
34242;SDS011;20504;43.214;27.920;2024-02-23T00:25:42;40.72;;;24.65;;
34242;SDS011;20504;43.214;27.920;2024-02-23T00:29:43;43.25;;;27.02;;
34242;SDS011;20504;43.214;27.920;2024-02-23T00:33:30;39.78;;;25.67;;
34242;SDS011;20504;43.214;27.920;2024-02-23T01:22:04;41.55;;;25.67;;
34242;SDS011;20504;43.214;27.920;2024-02-23T01:24:52;41.20;;;25.45;;
34242;SDS011;20504;43.214;27.920;2024-02-23T01:37:03;37.42;;;23.08;;
34242;SDS011;20504;43.214;27.920;2024-02-23T01:40:24;43.05;;;26.02;;
34242;SDS011;20504;43.214;27.920;2024-02-23T02:07:20;39.83;;;24.55;;
34242;SDS011;20504;43.214;27.920;2024-02-23T02:22:41;40.95;;;25.13;;
34242;SDS011;20504;43.214;27.920;2024-02-23T13:04:05;31.13;;;21.33;;
34242;SDS011;20504;43.214;27.920;2024-02-23T13:46:41;29.88;;;20.65;;
34242;SDS011;20504;43.214;27.920;2024-02-23T13:49:21;27.55;;;18.50;;
34242;SDS011;20504;43.214;27.920;2024-02-23T13:51:47;29.30;;;19.33;;
34242;SDS011;20504;43.214;27.920;2024-02-23T13:56:53;29.92;;;19.88;;
34242;SDS011;20504;43.214;27.920;2024-02-23T13:59:31;27.58;;;19.15;;
34242;SDS011;20504;43.214;27.920;2024-02-23T14:04:38;27.38;;;18.05;;
34242;SDS011;20504;43.214;27.920;2024-02-23T14:07:16;23.57;;;17.63;;
34242;SDS011;20504;43.214;27.920;2024-02-23T14:10:34;23.88;;;17.80;;
34242;SDS011;20504;43.214;27.920;2024-02-23T14:13:03;25.03;;;17.60;;
34242;SDS011;20504;43.214;27.920;2024-02-23T14:15:28;28.70;;;20.52;;
34242;SDS011;20504;43.214;27.920;2024-02-23T14:17:55;23.67;;;17.35;;
34242;SDS011;20504;43.214;27.920;2024-02-23T14:20:23;29.00;;;18.30;;
34242;SDS011;20504;43.214;27.920;2024-02-23T14:25:27;21.45;;;16.40;;
34242;SDS011;20504;43.214;27.920;2024-02-23T14:30:52;23.40;;;15.90;;
34242;SDS011;20504;43.214;27.920;2024-02-23T14:33:18;27.00;;;17.67;;
34242;SDS011;20504;43.214;27.920;2024-02-23T14:38:10;27.20;;;16.73;;
34242;SDS011;20504;43.214;27.920;2024-02-23T14:40:36;22.13;;;17.67;;
34242;SDS011;20504;43.214;27.920;2024-02-23T14:45:27;24.05;;;16.20;;
34242;SDS011;20504;43.214;27.920;2024-02-23T14:47:59;26.23;;;18.43;;
34242;SDS011;20504;43.214;27.920;2024-02-23T14:50:25;26.23;;;16.75;;
34242;SDS011;20504;43.214;27.920;2024-02-23T14:52:52;28.35;;;18.25;;
34242;SDS011;20504;43.214;27.920;2024-02-23T14:55:17;24.60;;;16.53;;
34242;SDS011;20504;43.214;27.920;2024-02-23T14:57:43;29.30;;;18.10;;
34242;SDS011;20504;43.214;27.920;2024-02-23T15:00:08;31.50;;;17.30;;
34242;SDS011;20504;43.214;27.920;2024-02-23T15:02:41;35.15;;;19.27;;
34242;SDS011;20504;43.214;27.920;2024-02-23T15:05:07;27.87;;;17.13;;
34242;SDS011;20504;43.214;27.920;2024-02-23T15:07:32;39.03;;;18.63;;
34242;SDS011;20504;43.214;27.920;2024-02-23T15:10:02;36.95;;;20.98;;
34242;SDS011;20504;43.214;27.920;2024-02-23T15:12:33;31.05;;;19.67;;
34242;SDS011;20504;43.214;27.920;2024-02-23T15:14:59;33.90;;;19.90;;
34242;SDS011;20504;43.214;27.920;2024-02-23T15:17:24;44.00;;;21.43;;
34242;SDS011;20504;43.214;27.920;2024-02-23T15:19:50;37.10;;;21.70;;
34242;SDS011;20504;43.214;27.920;2024-02-23T15:22:15;41.57;;;20.13;;
34242;SDS011;20504;43.214;27.920;2024-02-23T15:24:43;33.63;;;21.08;;
34242;SDS011;20504;43.214;27.920;2024-02-23T15:27:14;31.27;;;20.15;;
34242;SDS011;20504;43.214;27.920;2024-02-23T15:29:40;31.23;;;21.13;;
34242;SDS011;20504;43.214;27.920;2024-02-23T15:32:10;24.00;;;15.50;;
34242;SDS011;20504;43.214;27.920;2024-02-23T15:34:36;34.55;;;21.10;;
34242;SDS011;20504;43.214;27.920;2024-02-23T15:37:02;37.93;;;21.67;;
34242;SDS011;20504;43.214;27.920;2024-02-23T15:39:27;44.50;;;21.40;;
34242;SDS011;20504;43.214;27.920;2024-02-23T15:41:53;35.73;;;21.80;;
34242;SDS011;20504;43.214;27.920;2024-02-23T15:44:19;36.87;;;21.87;;
34242;SDS011;20504;43.214;27.920;2024-02-23T15:52:27;41.63;;;21.15;;
34242;SDS011;20504;43.214;27.920;2024-02-23T15:54:52;39.78;;;21.48;;
34242;SDS011;20504;43.214;27.920;2024-02-23T15:57:19;60.43;;;25.50;;
34242;SDS011;20504;43.214;27.920;2024-02-23T15:59:47;78.75;;;30.13;;
34242;SDS011;20504;43.214;27.920;2024-02-23T16:02:13;364.87;;;73.10;;
34242;SDS011;20504;43.214;27.920;2024-02-23T16:04:39;159.47;;;40.07;;
34242;SDS011;20504;43.214;27.920;2024-02-23T16:07:05;60.78;;;27.67;;
34242;SDS011;20504;43.214;27.920;2024-02-23T16:09:31;67.40;;;31.77;;
34242;SDS011;20504;43.214;27.920;2024-02-23T16:11:58;50.05;;;26.88;;
34242;SDS011;20504;43.214;27.920;2024-02-23T16:14:23;41.63;;;22.43;;
34242;SDS011;20504;43.214;27.920;2024-02-23T16:16:52;43.27;;;22.27;;
34242;SDS011;20504;43.214;27.920;2024-02-23T16:19:28;45.40;;;23.17;;
34242;SDS011;20504;43.214;27.920;2024-02-23T16:21:53;41.70;;;23.43;;
34242;SDS011;20504;43.214;27.920;2024-02-23T16:24:28;41.15;;;22.45;;
34242;SDS011;20504;43.214;27.920;2024-02-23T16:26:54;51.67;;;25.20;;
34242;SDS011;20504;43.214;27.920;2024-02-23T16:29:20;52.90;;;26.07;;
34242;SDS011;20504;43.214;27.920;2024-02-23T16:31:45;42.92;;;23.92;;
34242;SDS011;20504;43.214;27.920;2024-02-23T16:34:14;41.93;;;25.03;;
34242;SDS011;20504;43.214;27.920;2024-02-23T16:36:40;53.90;;;24.58;;
34242;SDS011;20504;43.214;27.920;2024-02-23T16:39:05;44.17;;;24.27;;
34242;SDS011;20504;43.214;27.920;2024-02-23T16:41:36;40.85;;;24.10;;
34242;SDS011;20504;43.214;27.920;2024-02-23T16:44:06;41.95;;;24.52;;
34242;SDS011;20504;43.214;27.920;2024-02-23T17:41:11;49.58;;;27.08;;
34242;SDS011;20504;43.214;27.920;2024-02-23T17:43:37;56.95;;;27.58;;
34242;SDS011;20504;43.214;27.920;2024-02-23T17:46:03;53.30;;;30.60;;
34242;SDS011;20504;43.214;27.920;2024-02-23T17:48:32;46.50;;;27.65;;
34242;SDS011;20504;43.214;27.920;2024-02-23T17:50:58;48.17;;;26.90;;
34242;SDS011;20504;43.214;27.920;2024-02-23T17:53:23;51.27;;;26.07;;
34242;SDS011;20504;43.214;27.920;2024-02-23T17:55:50;56.63;;;28.63;;
34242;SDS011;20504;43.214;27.920;2024-02-23T17:58:19;49.72;;;27.77;;
34242;SDS011;20504;43.214;27.920;2024-02-23T18:00:44;53.83;;;29.60;;
34242;SDS011;20504;43.214;27.920;2024-02-23T18:03:09;62.47;;;29.17;;
34242;SDS011;20504;43.214;27.920;2024-02-23T18:05:35;48.10;;;26.00;;
34242;SDS011;20504;43.214;27.920;2024-02-23T18:08:00;45.53;;;25.13;;
34242;SDS011;20504;43.214;27.920;2024-02-23T18:10:25;41.33;;;24.93;;
34242;SDS011;20504;43.214;27.920;2024-02-23T18:12:51;43.83;;;24.60;;
34242;SDS011;20504;43.214;27.920;2024-02-23T18:15:16;49.10;;;25.10;;
34242;SDS011;20504;43.214;27.920;2024-02-23T18:17:42;41.73;;;24.60;;
34242;SDS011;20504;43.214;27.920;2024-02-23T18:20:07;47.40;;;24.90;;
34242;SDS011;20504;43.214;27.920;2024-02-23T18:22:33;51.60;;;25.67;;
34242;SDS011;20504;43.214;27.920;2024-02-23T18:24:59;44.10;;;25.03;;
34242;SDS011;20504;43.214;27.920;2024-02-23T18:27:25;49.03;;;24.57;;
34242;SDS011;20504;43.214;27.920;2024-02-23T18:29:51;48.00;;;26.80;;
34242;SDS011;20504;43.214;27.920;2024-02-23T18:32:17;50.70;;;27.90;;
34242;SDS011;20504;43.214;27.920;2024-02-23T18:34:42;45.73;;;26.33;;
34242;SDS011;20504;43.214;27.920;2024-02-23T18:37:09;57.20;;;30.33;;
34242;SDS011;20504;43.214;27.920;2024-02-23T18:39:35;55.10;;;29.30;;
34242;SDS011;20504;43.214;27.920;2024-02-23T18:42:01;59.97;;;29.90;;
34242;SDS011;20504;43.214;27.920;2024-02-23T18:44:26;65.97;;;33.50;;
34242;SDS011;20504;43.214;27.920;2024-02-23T18:46:52;56.10;;;29.95;;
34242;SDS011;20504;43.214;27.920;2024-02-23T18:49:18;58.50;;;31.42;;
34242;SDS011;20504;43.214;27.920;2024-02-23T18:54:16;54.53;;;28.23;;
34242;SDS011;20504;43.214;27.920;2024-02-23T18:56:41;44.83;;;23.60;;
34242;SDS011;20504;43.214;27.920;2024-02-23T18:59:07;49.10;;;30.60;;
34242;SDS011;20504;43.214;27.920;2024-02-23T19:01:35;51.13;;;29.97;;
34242;SDS011;20504;43.214;27.920;2024-02-23T19:04:03;52.10;;;29.67;;
34242;SDS011;20504;43.214;27.920;2024-02-23T19:06:29;52.65;;;29.00;;
34242;SDS011;20504;43.214;27.920;2024-02-23T19:08:55;60.10;;;30.00;;
34242;SDS011;20504;43.214;27.920;2024-02-23T19:11:21;35.88;;;22.25;;
34242;SDS011;20504;43.214;27.920;2024-02-23T19:13:46;51.47;;;28.00;;
34242;SDS011;20504;43.214;27.920;2024-02-23T19:16:24;65.30;;;30.77;;
34242;SDS011;20504;43.214;27.920;2024-02-23T19:18:52;51.58;;;27.17;;
34242;SDS011;20504;43.214;27.920;2024-02-23T19:21:18;55.10;;;29.73;;
34242;SDS011;20504;43.214;27.920;2024-02-23T19:23:43;53.10;;;29.92;;
34242;SDS011;20504;43.214;27.920;2024-02-23T19:26:09;50.95;;;28.85;;
34242;SDS011;20504;43.214;27.920;2024-02-23T19:28:36;55.60;;;30.50;;
34242;SDS011;20504;43.214;27.920;2024-02-23T19:31:02;63.92;;;32.13;;
34242;SDS011;20504;43.214;27.920;2024-02-23T19:33:27;55.60;;;31.00;;
34242;SDS011;20504;43.214;27.920;2024-02-23T19:35:58;58.08;;;32.35;;
34242;SDS011;20504;43.214;27.920;2024-02-23T19:38:38;70.22;;;32.25;;
34242;SDS011;20504;43.214;27.920;2024-02-23T19:41:08;58.92;;;31.67;;
34242;SDS011;20504;43.214;27.920;2024-02-23T19:43:39;57.47;;;29.77;;
34242;SDS011;20504;43.214;27.920;2024-02-23T19:46:07;57.85;;;29.48;;
34242;SDS011;20504;43.214;27.920;2024-02-23T19:48:32;55.53;;;29.30;;
34242;SDS011;20504;43.214;27.920;2024-02-23T19:50:58;61.00;;;30.13;;
34242;SDS011;20504;43.214;27.920;2024-02-23T19:53:25;61.35;;;30.40;;
34242;SDS011;20504;43.214;27.920;2024-02-23T19:55:50;57.43;;;28.70;;
34242;SDS011;20504;43.214;27.920;2024-02-23T19:58:16;61.17;;;30.63;;
34242;SDS011;20504;43.214;27.920;2024-02-23T20:00:41;47.83;;;27.60;;
34242;SDS011;20504;43.214;27.920;2024-02-23T20:03:12;54.80;;;26.57;;
34242;SDS011;20504;43.214;27.920;2024-02-23T20:05:40;46.72;;;28.00;;
34242;SDS011;20504;43.214;27.920;2024-02-23T20:08:06;47.33;;;26.00;;
34242;SDS011;20504;43.214;27.920;2024-02-23T20:10:35;52.25;;;25.52;;
34242;SDS011;20504;43.214;27.920;2024-02-23T20:13:03;44.67;;;25.33;;
34242;SDS011;20504;43.214;27.920;2024-02-23T20:15:39;55.65;;;27.15;;
34242;SDS011;20504;43.214;27.920;2024-02-23T20:20:37;51.28;;;25.90;;
34242;SDS011;20504;43.214;27.920;2024-02-23T20:23:04;43.80;;;24.63;;
34242;SDS011;20504;43.214;27.920;2024-02-23T20:25:30;48.60;;;21.97;;
34242;SDS011;20504;43.214;27.920;2024-02-23T20:27:56;60.60;;;25.42;;
34242;SDS011;20504;43.214;27.920;2024-02-23T20:32:48;44.83;;;23.63;;
34242;SDS011;20504;43.214;27.920;2024-02-23T20:35:13;42.43;;;24.40;;
34242;SDS011;20504;43.214;27.920;2024-02-23T20:37:38;39.77;;;23.57;;
34242;SDS011;20504;43.214;27.920;2024-02-23T20:40:05;39.10;;;21.13;;
34242;SDS011;20504;43.214;27.920;2024-02-23T20:42:30;35.25;;;20.33;;
34242;SDS011;20504;43.214;27.920;2024-02-23T20:44:56;41.43;;;20.27;;
34242;SDS011;20504;43.214;27.920;2024-02-23T20:47:21;39.77;;;21.70;;
34242;SDS011;20504;43.214;27.920;2024-02-23T20:49:47;42.38;;;21.60;;
34242;SDS011;20504;43.214;27.920;2024-02-23T20:52:13;45.40;;;21.83;;
34242;SDS011;20504;43.214;27.920;2024-02-23T20:54:42;40.40;;;21.85;;
34242;SDS011;20504;43.214;27.920;2024-02-23T20:57:16;35.65;;;19.48;;
34242;SDS011;20504;43.214;27.920;2024-02-23T20:59:44;38.42;;;22.83;;
34242;SDS011;20504;43.214;27.920;2024-02-23T21:02:20;45.63;;;22.63;;
34242;SDS011;20504;43.214;27.920;2024-02-23T21:04:52;45.85;;;21.85;;
34242;SDS011;20504;43.214;27.920;2024-02-23T21:07:19;46.95;;;22.30;;
34242;SDS011;20504;43.214;27.920;2024-02-23T21:09:44;38.67;;;21.07;;
34242;SDS011;20504;43.214;27.920;2024-02-23T21:12:13;39.70;;;22.17;;
34242;SDS011;20504;43.214;27.920;2024-02-23T21:14:42;40.35;;;21.38;;
34242;SDS011;20504;43.214;27.920;2024-02-23T21:17:19;37.90;;;20.53;;
34242;SDS011;20504;43.214;27.920;2024-02-23T21:20:06;41.35;;;21.15;;
34242;SDS011;20504;43.214;27.920;2024-02-23T21:24:56;37.10;;;21.53;;
34242;SDS011;20504;43.214;27.920;2024-02-23T21:27:23;40.97;;;20.77;;
34242;SDS011;20504;43.214;27.920;2024-02-23T21:30:05;38.33;;;20.88;;
34242;SDS011;20504;43.214;27.920;2024-02-23T21:32:50;47.03;;;22.67;;
34242;SDS011;20504;43.214;27.920;2024-02-23T21:35:17;52.95;;;21.20;;
34242;SDS011;20504;43.214;27.920;2024-02-23T21:37:54;38.60;;;21.95;;
34242;SDS011;20504;43.214;27.920;2024-02-23T21:40:25;48.10;;;23.23;;
34242;SDS011;20504;43.214;27.920;2024-02-23T21:42:53;40.65;;;24.10;;
34242;SDS011;20504;43.214;27.920;2024-02-23T21:45:20;45.65;;;23.88;;
34242;SDS011;20504;43.214;27.920;2024-02-23T21:47:46;44.22;;;22.77;;
34242;SDS011;20504;43.214;27.920;2024-02-23T21:50:19;47.53;;;23.10;;
34242;SDS011;20504;43.214;27.920;2024-02-23T21:52:47;46.78;;;23.58;;
34242;SDS011;20504;43.214;27.920;2024-02-23T21:55:13;43.95;;;23.45;;
34242;SDS011;20504;43.214;27.920;2024-02-23T21:57:38;44.23;;;25.13;;
34242;SDS011;20504;43.214;27.920;2024-02-23T22:00:07;53.83;;;24.13;;
34242;SDS011;20504;43.214;27.920;2024-02-23T22:02:38;39.85;;;23.00;;
34242;SDS011;20504;43.214;27.920;2024-02-23T22:05:03;44.90;;;23.60;;
34242;SDS011;20504;43.214;27.920;2024-02-23T22:07:29;52.40;;;24.50;;
34242;SDS011;20504;43.214;27.920;2024-02-23T22:09:58;37.22;;;22.08;;
34242;SDS011;20504;43.214;27.920;2024-02-23T22:12:28;37.92;;;21.55;;
34242;SDS011;20504;43.214;27.920;2024-02-23T22:14:55;49.05;;;23.48;;
34242;SDS011;20504;43.214;27.920;2024-02-23T22:17:22;39.53;;;21.92;;
34242;SDS011;20504;43.214;27.920;2024-02-23T22:19:47;41.42;;;22.73;;
34242;SDS011;20504;43.214;27.920;2024-02-23T22:22:20;39.60;;;23.17;;
34242;SDS011;20504;43.214;27.920;2024-02-23T22:25:01;41.33;;;21.77;;
34242;SDS011;20504;43.214;27.920;2024-02-23T22:27:27;32.63;;;20.77;;
34242;SDS011;20504;43.214;27.920;2024-02-23T22:29:53;36.47;;;19.77;;
34242;SDS011;20504;43.214;27.920;2024-02-23T22:32:19;38.15;;;18.88;;
34242;SDS011;20504;43.214;27.920;2024-02-23T22:34:46;39.70;;;20.08;;
34242;SDS011;20504;43.214;27.920;2024-02-23T22:37:12;34.78;;;19.08;;
34242;SDS011;20504;43.214;27.920;2024-02-23T22:39:45;34.05;;;18.75;;
34242;SDS011;20504;43.214;27.920;2024-02-23T22:42:11;37.92;;;19.23;;
34242;SDS011;20504;43.214;27.920;2024-02-23T22:44:39;34.07;;;18.20;;
34242;SDS011;20504;43.214;27.920;2024-02-23T22:47:08;31.30;;;18.15;;
34242;SDS011;20504;43.214;27.920;2024-02-23T22:49:38;29.07;;;18.00;;
34242;SDS011;20504;43.214;27.920;2024-02-23T22:52:03;35.33;;;19.00;;
34242;SDS011;20504;43.214;27.920;2024-02-23T22:54:28;26.87;;;16.23;;
34242;SDS011;20504;43.214;27.920;2024-02-23T22:56:54;29.90;;;17.30;;
34242;SDS011;20504;43.214;27.920;2024-02-23T22:59:19;28.23;;;17.83;;
34242;SDS011;20504;43.214;27.920;2024-02-23T23:01:44;33.17;;;16.20;;
34242;SDS011;20504;43.214;27.920;2024-02-23T23:04:13;29.48;;;16.70;;
34242;SDS011;20504;43.214;27.920;2024-02-23T23:09:05;27.53;;;15.03;;
34242;SDS011;20504;43.214;27.920;2024-02-23T23:11:35;29.35;;;15.85;;
34242;SDS011;20504;43.214;27.920;2024-02-23T23:14:06;40.25;;;20.05;;
34242;SDS011;20504;43.214;27.920;2024-02-23T23:16:31;36.30;;;18.00;;
34242;SDS011;20504;43.214;27.920;2024-02-23T23:19:00;31.13;;;16.27;;
34242;SDS011;20504;43.214;27.920;2024-02-23T23:21:25;26.58;;;15.05;;
34242;SDS011;20504;43.214;27.920;2024-02-23T23:23:50;21.83;;;14.57;;
34242;SDS011;20504;43.214;27.920;2024-02-23T23:26:16;32.00;;;15.87;;
34242;SDS011;20504;43.214;27.920;2024-02-23T23:28:43;28.58;;;17.38;;
34242;SDS011;20504;43.214;27.920;2024-02-23T23:31:08;32.80;;;16.33;;
34242;SDS011;20504;43.214;27.920;2024-02-23T23:33:42;23.95;;;15.18;;
34242;SDS011;20504;43.214;27.920;2024-02-23T23:36:12;28.48;;;15.32;;
34242;SDS011;20504;43.214;27.920;2024-02-23T23:38:44;22.77;;;14.85;;
34242;SDS011;20504;43.214;27.920;2024-02-23T23:41:09;28.50;;;16.73;;
34242;SDS011;20504;43.214;27.920;2024-02-23T23:46:02;25.98;;;14.32;;
34242;SDS011;20504;43.214;27.920;2024-02-23T23:48:28;27.65;;;15.07;;
34242;SDS011;20504;43.214;27.920;2024-02-23T23:50:56;23.42;;;14.38;;
34242;SDS011;20504;43.214;27.920;2024-02-23T23:53:21;25.23;;;13.70;;
34242;SDS011;20504;43.214;27.920;2024-02-23T23:55:47;18.63;;;12.00;;
34242;SDS011;20504;43.214;27.920;2024-02-23T23:58:13;29.37;;;15.43;;
